createdAt,value
2019-04-24T00:04:03.427Z,18.82
2019-04-24T00:06:29.951Z,18.83
2019-04-24T00:08:58.922Z,18.83
2019-04-24T00:11:44.265Z,18.87
2019-04-24T00:14:23.897Z,18.85
2019-04-24T00:17:04.250Z,18.75
2019-04-24T00:19:27.695Z,18.69
2019-04-24T00:22:04.932Z,18.66
2019-04-24T00:27:15.427Z,18.68
2019-04-24T00:29:38.726Z,18.68
2019-04-24T00:32:02.361Z,18.68
2019-04-24T00:37:09.579Z,18.60
2019-04-24T00:39:34.977Z,18.54
2019-04-24T00:44:32.658Z,18.42
2019-04-24T00:47:15.866Z,18.21
2019-04-24T00:49:39.932Z,18.14
2019-04-24T00:52:09.367Z,18.13
2019-04-24T00:57:33.672Z,18.10
2019-04-24T00:59:41.643Z,18.09
2019-04-24T01:08:14.543Z,17.97
2019-04-24T01:11:11.780Z,17.90
2019-04-24T01:13:33.227Z,17.92
2019-04-24T01:18:37.071Z,17.95
2019-04-24T01:21:14.504Z,17.89
2019-04-24T01:23:34.798Z,17.84
2019-04-24T01:34:17.789Z,17.66
2019-04-24T01:44:58.322Z,17.57
2019-04-24T01:49:50.037Z,17.48
2019-04-24T01:52:40.441Z,17.46
2019-04-24T01:54:58.820Z,17.45
2019-04-24T01:57:29.175Z,17.44
2019-04-24T01:59:54.956Z,17.41
2019-04-24T02:05:00.470Z,17.38
2019-04-24T02:07:39.062Z,17.40
2019-04-24T02:17:59.016Z,17.27
2019-04-24T02:23:06.678Z,17.08
2019-04-24T02:25:44.899Z,17.02
2019-04-24T02:28:18.773Z,16.98
2019-04-24T02:31:07.841Z,17.01
2019-04-24T02:36:31.924Z,17.04
2019-04-24T02:41:37.575Z,17.06
2019-04-24T02:43:57.090Z,16.99
2019-04-24T02:49:15.301Z,16.98
2019-04-24T03:01:29.676Z,16.88
2019-04-24T03:04:01.548Z,16.90
2019-04-24T03:09:08.059Z,16.93
2019-04-24T03:14:46.787Z,16.92
2019-04-24T03:25:05.643Z,16.80
2019-04-24T03:30:02.625Z,16.73
2019-04-24T03:40:57.601Z,16.62
2019-04-24T03:45:24.292Z,16.56
2019-04-24T03:51:45.073Z,16.47
2019-04-24T04:04:31.826Z,16.31
2019-04-24T04:07:01.799Z,16.19
2019-04-24T04:09:39.679Z,16.13
2019-04-24T04:12:12.800Z,16.02
2019-04-24T04:27:34.407Z,16.11
2019-04-24T04:30:10.106Z,16.15
2019-04-24T04:35:29.715Z,16.00
2019-04-24T04:41:14.100Z,15.08
2019-04-24T04:43:49.018Z,15.25
2019-04-24T04:46:28.860Z,15.46
2019-04-24T04:48:58.403Z,15.74
2019-04-24T04:59:26.922Z,16.74
2019-04-24T05:02:44.737Z,16.87
2019-04-24T05:15:15.030Z,18.43
2019-04-24T05:20:00.659Z,18.90
2019-04-24T05:22:34.249Z,18.92
2019-04-24T05:25:19.519Z,18.81
2019-04-24T05:27:45.192Z,18.80
2019-04-24T05:41:10.040Z,17.79
2019-04-24T05:46:24.442Z,17.99
2019-04-24T05:52:00.529Z,19.30
2019-04-24T05:54:44.324Z,18.69
2019-04-24T06:00:14.596Z,19.65
2019-04-24T06:02:47.893Z,20.71
2019-04-24T06:05:21.154Z,20.98
2019-04-24T06:08:07.079Z,21.08
2019-04-24T06:13:44.801Z,20.71
2019-04-24T06:22:18.629Z,22.76
2019-04-24T06:29:53.431Z,22.96
2019-04-24T06:38:18.498Z,23.85
2019-04-24T06:43:41.519Z,22.61
2019-04-24T06:46:10.549Z,23.90
2019-04-24T06:48:41.158Z,24.53
2019-04-24T06:51:16.296Z,24.56
2019-04-24T06:54:00.821Z,25.67
2019-04-24T06:59:12.479Z,24.29
2019-04-24T07:01:57.854Z,23.72
2019-04-24T07:04:45.484Z,23.15
2019-04-24T07:06:49.237Z,23.19
2019-04-24T07:09:45.630Z,22.14
2019-04-24T07:12:24.426Z,22.10
2019-04-24T07:17:58.673Z,21.32
2019-04-24T07:20:34.664Z,20.98
2019-04-24T07:23:26.398Z,20.78
2019-04-24T07:28:35.089Z,20.77
2019-04-24T07:31:41.558Z,20.93
2019-04-24T07:34:08.814Z,21.35
2019-04-24T07:36:52.363Z,22.57
2019-04-24T07:39:36.970Z,24.07
2019-04-24T07:44:29.141Z,24.30
2019-04-24T07:47:03.045Z,25.05
2019-04-24T07:52:09.700Z,28.65
2019-04-24T07:57:24.922Z,29.42
2019-04-24T08:02:49.713Z,32.52
2019-04-24T08:07:50.584Z,34.92
2019-04-24T08:15:59.909Z,33.98
2019-04-24T08:18:27.840Z,29.86
2019-04-24T08:21:07.008Z,30.60
2019-04-24T08:31:31.349Z,29.67
2019-04-24T08:34:22.442Z,32.00
2019-04-24T08:36:37.268Z,34.57
2019-04-24T08:42:44.889Z,30.47
2019-04-24T08:45:12.815Z,29.21
2019-04-24T08:47:53.913Z,29.81
2019-04-24T08:52:50.828Z,27.41
2019-04-24T08:55:20.113Z,27.93
2019-04-24T09:00:20.077Z,28.13
2019-04-24T09:03:32.577Z,28.27
2019-04-24T09:08:34.998Z,23.99
2019-04-24T09:16:40.823Z,23.86
2019-04-24T09:19:02.745Z,24.36
2019-04-24T09:21:35.242Z,24.99
2019-04-24T09:27:13.046Z,25.51
2019-04-24T09:29:57.212Z,24.85
2019-04-24T09:34:51.574Z,23.80
2019-04-24T09:37:25.058Z,24.71
2019-04-24T09:43:11.254Z,29.03
2019-04-24T09:55:51.479Z,31.04
2019-04-24T09:58:34.160Z,31.63
2019-04-24T10:01:39.930Z,29.74
2019-04-24T10:04:20.662Z,29.07
2019-04-24T10:07:05.532Z,28.79
2019-04-24T10:09:15.119Z,27.38
2019-04-24T10:14:44.597Z,27.10
2019-04-24T10:22:49.193Z,26.15
2019-04-24T10:25:15.823Z,25.79
2019-04-24T10:27:58.173Z,25.54
2019-04-24T10:30:43.728Z,26.09
2019-04-24T10:33:23.687Z,26.74
2019-04-24T10:36:01.836Z,27.20
2019-04-24T10:38:40.231Z,26.95
2019-04-24T10:41:36.965Z,26.60
2019-04-24T10:44:28.590Z,27.99
2019-04-24T10:47:23.467Z,27.89
2019-04-24T10:52:47.769Z,26.26
2019-04-24T10:55:19.886Z,26.50
2019-04-24T10:57:54.785Z,27.54
2019-04-24T11:00:27.975Z,26.08
2019-04-24T11:03:27.296Z,25.73
2019-04-24T11:05:56.162Z,26.28
2019-04-24T11:08:57.717Z,26.74
2019-04-24T11:11:50.881Z,26.44
2019-04-24T11:20:15.602Z,28.55
2019-04-24T11:23:15.021Z,29.78
2019-04-24T11:28:49.315Z,29.74
2019-04-24T11:31:40.016Z,30.08
2019-04-24T11:42:30.578Z,32.65
2019-04-24T11:45:22.901Z,31.62
2019-04-24T11:55:39.101Z,28.23
2019-04-24T12:00:55.421Z,28.60
2019-04-24T12:04:01.861Z,29.72
2019-04-24T12:06:34.249Z,29.72
2019-04-24T12:11:35.970Z,29.20
2019-04-24T12:14:19.252Z,29.06
2019-04-24T12:16:53.335Z,29.55
2019-04-24T12:19:49.499Z,29.52
2019-04-24T12:22:10.445Z,28.69
2019-04-24T12:27:17.211Z,28.33
2019-04-24T12:29:48.662Z,29.29
2019-04-24T12:32:43.459Z,29.16
2019-04-24T12:35:29.665Z,28.19
2019-04-24T12:40:48.800Z,28.48
2019-04-24T12:45:56.718Z,29.60
2019-04-24T12:48:37.366Z,29.67
2019-04-24T12:50:56.329Z,30.23
2019-04-24T12:53:42.102Z,31.22
2019-04-24T12:56:31.997Z,29.11
2019-04-24T12:59:24.753Z,29.81
2019-04-24T13:06:53.839Z,29.05
2019-04-24T13:12:44.366Z,30.14
2019-04-24T13:20:03.165Z,28.67
2019-04-24T13:22:42.002Z,29.17
2019-04-24T13:28:51.935Z,29.46
2019-04-24T13:33:43.087Z,30.36
2019-04-24T13:38:50.967Z,30.41
2019-04-24T13:41:45.764Z,31.42
2019-04-24T13:46:39.502Z,28.94
2019-04-24T13:51:25.606Z,29.00
2019-04-24T13:54:03.825Z,29.68
2019-04-24T13:56:24.851Z,28.30
2019-04-24T13:58:58.601Z,29.88
2019-04-24T14:01:43.442Z,30.20
2019-04-24T14:06:42.564Z,30.05
2019-04-24T14:12:30.544Z,30.88
2019-04-24T14:14:08.653Z,31.74
2019-04-24T14:22:05.880Z,28.35
2019-04-24T14:24:54.971Z,29.01
2019-04-24T14:27:11.547Z,29.91
2019-04-24T14:29:48.921Z,30.77
2019-04-24T14:32:14.574Z,31.12
2019-04-24T14:34:55.392Z,31.29
2019-04-24T14:37:15.761Z,31.09
2019-04-24T14:45:08.582Z,30.52
2019-04-24T14:47:34.726Z,29.99
2019-04-24T14:50:16.219Z,31.12
2019-04-24T14:52:40.509Z,29.29
2019-04-24T15:02:49.609Z,28.95
2019-04-24T15:10:25.337Z,28.39
2019-04-24T15:15:18.508Z,28.89
2019-04-24T15:18:08.546Z,28.08
2019-04-24T15:23:05.602Z,27.90
2019-04-24T15:28:13.983Z,29.02
2019-04-24T15:33:18.125Z,28.23
2019-04-24T15:36:03.089Z,29.15
2019-04-24T15:40:54.106Z,28.43
2019-04-24T15:45:54.587Z,27.80
2019-04-24T15:48:42.921Z,28.62
2019-04-24T15:50:56.691Z,28.60
2019-04-24T15:52:53.162Z,29.22
2019-04-24T15:55:31.485Z,28.79
2019-04-24T15:58:05.489Z,28.86
2019-04-24T16:03:41.105Z,28.81
2019-04-24T16:05:56.404Z,28.81
2019-04-24T16:08:25.914Z,28.86
2019-04-24T16:10:55.405Z,27.06
2019-04-24T16:13:32.582Z,25.86
2019-04-24T16:16:23.874Z,24.66
2019-04-24T16:19:16.183Z,23.40
2019-04-24T16:21:29.704Z,22.82
2019-04-24T16:26:34.136Z,22.42
2019-04-24T16:31:47.658Z,22.14
2019-04-24T16:36:47.221Z,22.34
2019-04-24T16:39:09.462Z,22.34
2019-04-24T16:49:28.980Z,22.38
2019-04-24T16:52:14.331Z,21.86
2019-04-24T16:54:21.617Z,21.52
2019-04-24T16:57:01.749Z,21.14
2019-04-24T16:59:21.970Z,20.62
2019-04-24T17:04:55.597Z,20.54
2019-04-24T17:09:51.120Z,19.99
2019-04-24T17:12:29.193Z,19.66
2019-04-24T17:14:50.530Z,19.87
2019-04-24T17:22:49.827Z,19.46
2019-04-24T17:25:11.522Z,19.55
2019-04-24T17:27:40.961Z,19.23
2019-04-24T17:32:50.711Z,18.12
2019-04-24T17:35:22.537Z,17.57
2019-04-24T17:37:20.114Z,16.58
2019-04-24T17:39:58.076Z,16.25
2019-04-24T17:42:47.585Z,15.51
2019-04-24T17:45:32.356Z,15.42
2019-04-24T17:50:32.147Z,15.66
2019-04-24T17:53:08.293Z,15.44
2019-04-24T17:55:52.077Z,15.36
2019-04-24T17:57:46.386Z,15.41
2019-04-24T18:00:12.384Z,15.15
2019-04-24T18:02:42.450Z,14.77
2019-04-24T18:05:13.049Z,14.74
2019-04-24T18:07:42.827Z,14.77
2019-04-24T18:10:13.214Z,14.61
2019-04-24T18:12:43.208Z,14.64
2019-04-24T18:15:13.140Z,14.71
2019-04-24T18:17:43.036Z,14.98
2019-04-24T18:20:13.542Z,15.13
2019-04-24T18:22:43.446Z,15.02
2019-04-24T18:25:36.713Z,14.89
2019-04-24T18:28:06.382Z,14.65
2019-04-24T18:30:36.070Z,14.74
2019-04-24T18:33:07.374Z,14.65
2019-04-24T18:35:39.127Z,14.57
2019-04-24T18:38:12.817Z,14.66
2019-04-24T18:40:41.378Z,14.39
2019-04-24T18:43:12.221Z,14.25
2019-04-24T18:45:43.724Z,14.14
2019-04-24T18:48:13.754Z,14.35
2019-04-24T18:50:43.679Z,14.37
2019-04-24T18:53:13.923Z,14.58
2019-04-24T18:55:43.800Z,14.89
2019-04-24T18:58:14.611Z,15.01
2019-04-24T19:00:45.142Z,14.75
2019-04-24T19:03:16.315Z,14.99
2019-04-24T19:05:47.151Z,15.23
2019-04-24T19:08:17.602Z,15.23
2019-04-24T19:10:47.430Z,15.42
2019-04-24T19:13:17.722Z,15.61
2019-04-24T19:15:47.569Z,15.57
2019-04-24T19:18:17.129Z,15.40
2019-04-24T19:20:46.599Z,15.55
2019-04-24T19:23:16.248Z,15.67
2019-04-24T19:25:45.734Z,15.79
2019-04-24T19:28:17.058Z,15.83
2019-04-24T19:30:46.572Z,15.71
2019-04-24T19:33:16.250Z,15.51
2019-04-24T19:35:46.598Z,15.46
2019-04-24T19:38:16.127Z,15.35
2019-04-24T19:40:45.588Z,15.20
2019-04-24T19:43:15.430Z,14.52
2019-04-24T19:45:45.015Z,13.86
2019-04-24T19:48:15.211Z,13.70
2019-04-24T19:50:44.702Z,14.15
2019-04-24T19:53:20.357Z,14.53
2019-04-24T19:55:45.574Z,14.91
2019-04-24T19:58:15.891Z,15.10
2019-04-24T20:00:45.437Z,15.20
2019-04-24T20:03:16.044Z,15.31
2019-04-24T20:05:45.933Z,15.31
2019-04-24T20:08:16.292Z,15.29
2019-04-24T20:10:55.991Z,15.35
2019-04-24T20:13:25.706Z,15.46
2019-04-24T20:15:55.415Z,15.54
2019-04-24T20:18:25.207Z,15.46
2019-04-24T20:20:54.969Z,15.35
2019-04-24T20:23:34.554Z,15.38
2019-04-24T20:25:56.255Z,15.49
2019-04-24T20:28:26.080Z,15.55
2019-04-24T20:30:55.901Z,15.54
2019-04-24T20:33:25.595Z,15.53
2019-04-24T20:35:55.271Z,14.80
2019-04-24T20:38:25.006Z,14.18
2019-04-24T20:40:54.713Z,13.95
2019-04-24T20:43:24.754Z,13.94
2019-04-24T20:45:54.482Z,14.03
2019-04-24T20:48:24.181Z,14.26
2019-04-24T20:50:53.872Z,14.56
2019-04-24T20:53:24.608Z,14.53
2019-04-24T20:55:55.025Z,14.47
2019-04-24T20:58:26.019Z,14.47
2019-04-24T21:00:55.975Z,14.41
2019-04-24T21:03:26.156Z,14.37
2019-04-24T21:06:22.316Z,14.44
2019-04-24T21:08:58.730Z,14.51
2019-04-24T21:11:29.080Z,14.60
2019-04-24T21:13:58.869Z,14.68
2019-04-24T21:16:29.130Z,14.75
2019-04-24T21:18:58.844Z,14.76
2019-04-24T21:21:28.440Z,14.80
2019-04-24T21:23:58.175Z,14.88
2019-04-24T21:26:28.603Z,14.92
2019-04-24T21:28:59.009Z,14.95
2019-04-24T21:31:28.688Z,14.99
2019-04-24T21:33:58.332Z,14.91
2019-04-24T21:36:28.227Z,14.72
2019-04-24T21:38:58.254Z,14.67
2019-04-24T21:41:27.963Z,14.67
2019-04-24T21:43:57.849Z,14.56
2019-04-24T21:46:28.169Z,14.57
2019-04-24T21:48:57.975Z,14.40
2019-04-24T21:51:27.813Z,14.42
2019-04-24T21:54:04.267Z,14.37
2019-04-24T21:56:29.076Z,14.33
2019-04-24T21:58:58.771Z,14.41
2019-04-24T22:01:52.073Z,14.46
2019-04-24T22:04:35.603Z,14.36
2019-04-24T22:07:16.567Z,13.92
2019-04-24T22:09:46.494Z,13.99
2019-04-24T22:12:16.782Z,14.12
2019-04-24T22:14:46.585Z,14.26
2019-04-24T22:17:16.415Z,14.21
2019-04-24T22:19:46.227Z,14.19
2019-04-24T22:22:26.025Z,14.16
2019-04-24T22:25:23.441Z,12.35
2019-04-24T22:27:53.341Z,11.78
2019-04-24T22:30:37.409Z,12.33
2019-04-24T22:33:07.035Z,12.66
2019-04-24T22:35:41.960Z,12.76
2019-04-24T22:38:12.523Z,12.80
2019-04-24T22:41:06.970Z,12.93
2019-04-24T22:43:36.663Z,13.01
2019-04-24T22:46:06.140Z,13.13
2019-04-24T22:48:35.567Z,13.25
2019-04-24T22:51:04.961Z,13.23
2019-04-24T22:53:35.119Z,13.14
2019-04-24T22:56:04.526Z,13.14
2019-04-24T22:58:34.833Z,12.62
2019-04-24T23:01:07.028Z,12.53
2019-04-24T23:03:36.983Z,12.40
2019-04-24T23:06:06.604Z,12.23
2019-04-24T23:08:37.438Z,12.43
2019-04-24T23:11:06.953Z,12.60
2019-04-24T23:13:36.453Z,12.47
2019-04-24T23:16:06.441Z,12.59
2019-04-24T23:18:36.313Z,12.66
2019-04-24T23:21:27.891Z,12.79
2019-04-24T23:24:10.850Z,12.96
2019-04-24T23:26:45.530Z,12.98
2019-04-24T23:29:23.971Z,12.89
2019-04-24T23:32:24.600Z,12.78
2019-04-24T23:34:54.784Z,12.61
2019-04-24T23:37:24.181Z,12.61
2019-04-24T23:39:53.587Z,12.77
2019-04-24T23:42:22.958Z,12.78
2019-04-24T23:44:52.390Z,12.53
2019-04-24T23:47:21.765Z,12.49
2019-04-24T23:49:51.883Z,12.41
2019-04-24T23:52:22.328Z,12.56
2019-04-24T23:55:02.797Z,12.67
2019-04-24T23:57:22.873Z,12.80
2019-04-24T23:59:52.279Z,12.80
